Time;durP1;ratioP1;P1;durP2;ratioP2;P2;SDS_P1;SDS_P2;PMS_P1;PMS_P2;Temp;Humidity;BMP_temperature;BMP_pressure;BME280_temperature;BME280_humidity;BME280_pressure;Samples;Min_cycle;Max_cycle;Signal;HPM_P1;HPM_P2
2022/01/30 00:01:44;;;;;;;67.30;31.30;;;3.40;99.90;;;;;;4938600;29;20032;-84
2022/01/30 00:04:10;;;;;;;71.13;32.92;;;3.10;99.90;;;;;;4938488;29;20477;-84
2022/01/30 00:06:36;;;;;;;70.35;33.47;;;3.00;99.90;;;;;;4941843;29;20083;-84
2022/01/30 00:09:02;;;;;;;70.63;31.88;;;3.00;99.90;;;;;;4940741;29;20034;-84
2022/01/30 00:11:33;;;;;;;68.35;32.10;;;3.00;99.90;;;;;;4940794;29;20032;-84
2022/01/30 00:14:01;;;;;;;65.30;31.33;;;3.60;99.90;;;;;;4940872;29;20086;-84
2022/01/30 00:16:31;;;;;;;69.35;32.30;;;3.30;99.90;;;;;;4936715;29;20158;-84
2022/01/30 00:19:08;;;;;;;72.43;31.52;;;3.70;99.90;;;;;;4948829;29;20055;-84
2022/01/30 00:21:42;;;;;;;69.20;31.50;;;3.20;99.90;;;;;;4940524;29;20046;-84
2022/01/30 00:24:13;;;;;;;67.65;31.27;;;3.20;99.90;;;;;;4940878;29;20048;-84
2022/01/30 00:26:40;;;;;;;66.57;31.42;;;3.20;99.90;;;;;;4940464;29;20028;-85
2022/01/30 00:29:07;;;;;;;76.78;32.05;;;3.20;99.90;;;;;;4940814;29;20046;-84
2022/01/30 00:31:34;;;;;;;71.28;32.47;;;3.20;99.90;;;;;;4936756;29;20032;-84
2022/01/30 00:33:59;;;;;;;70.45;31.67;;;3.50;99.90;;;;;;4939978;29;20119;-84
2022/01/30 00:36:26;;;;;;;67.80;32.00;;;3.20;99.90;;;;;;4924578;29;20139;-84
2022/01/30 00:38:52;;;;;;;67.22;31.10;;;3.30;99.90;;;;;;4940302;29;20587;-85
2022/01/30 00:41:18;;;;;;;71.70;31.35;;;3.40;99.90;;;;;;4940034;29;20031;-84
2022/01/30 00:43:43;;;;;;;72.13;32.72;;;3.40;99.90;;;;;;4938084;29;20044;-84
2022/01/30 00:46:09;;;;;;;78.03;33.28;;;3.40;99.90;;;;;;4938595;29;20111;-84
2022/01/30 00:48:35;;;;;;;71.57;32.03;;;3.90;99.90;;;;;;4940757;29;20091;-84
2022/01/30 00:51:01;;;;;;;72.80;31.67;;;3.40;99.90;;;;;;4940108;29;20035;-84
2022/01/30 00:53:26;;;;;;;71.30;31.58;;;3.40;99.90;;;;;;4940099;29;20090;-84
2022/01/30 00:55:52;;;;;;;75.95;32.95;;;3.40;99.90;;;;;;4938988;29;20086;-84
2022/01/30 00:58:18;;;;;;;74.70;32.78;;;3.80;99.90;;;;;;4936946;29;20044;-84
2022/01/30 01:00:43;;;;;;;67.85;32.28;;;3.40;99.90;;;;;;4923761;29;20035;-84
2022/01/30 01:03:09;;;;;;;75.32;32.65;;;3.50;99.90;;;;;;4939522;29;20110;-84
2022/01/30 01:05:36;;;;;;;68.25;31.55;;;3.50;99.90;;;;;;4939894;29;20023;-84
2022/01/30 01:08:11;;;;;;;69.82;31.23;;;3.90;99.90;;;;;;4940184;29;20038;-84
2022/01/30 01:23:49;;;;;;;75.30;33.70;;;2.40;99.90;;;;;;4862281;29;20522;-85
2022/01/30 01:26:15;;;;;;;79.50;35.35;;;2.80;99.90;;;;;;4862390;29;20136;-84
2022/01/30 01:28:41;;;;;;;69.20;32.72;;;2.90;99.90;;;;;;4859466;29;20600;-84
2022/01/30 01:31:07;;;;;;;78.60;33.75;;;2.90;99.90;;;;;;4860048;29;20029;-85
2022/01/30 01:36:25;;;;;;;84.05;34.22;;;3.30;99.90;;;;;;4841116;29;20061;-84
2022/01/30 01:38:51;;;;;;;75.20;32.28;;;3.50;99.90;;;;;;4840605;29;20095;-84
2022/01/30 01:41:20;;;;;;;83.40;34.30;;;3.00;99.90;;;;;;4840475;29;20400;-85
2022/01/30 01:43:48;;;;;;;77.80;32.75;;;2.80;99.90;;;;;;4840641;29;20286;-85
2022/01/30 01:46:18;;;;;;;81.78;34.92;;;3.40;99.90;;;;;;4840038;29;20034;-84
2022/01/30 01:48:46;;;;;;;77.38;33.72;;;3.50;99.90;;;;;;4840016;29;20080;-84
2022/01/30 01:51:18;;;;;;;81.47;33.63;;;3.10;99.90;;;;;;4833222;29;20038;-84
2022/01/30 01:53:45;;;;;;;76.35;33.15;;;3.30;99.90;;;;;;4835101;29;20412;-85
2022/01/30 01:56:14;;;;;;;77.28;32.75;;;3.40;99.90;;;;;;4839947;29;20042;-84
2022/01/30 01:58:40;;;;;;;76.03;34.03;;;3.80;99.90;;;;;;4860375;29;20445;-85
2022/01/30 02:01:06;;;;;;;83.05;34.42;;;3.50;99.90;;;;;;4879691;29;20041;-84
2022/01/30 02:03:36;;;;;;;75.57;33.58;;;3.50;99.90;;;;;;4895155;29;20033;-84
2022/01/30 02:06:03;;;;;;;81.75;34.38;;;3.50;99.90;;;;;;4886258;29;20437;-85
2022/01/30 02:11:18;;;;;;;80.32;34.67;;;3.30;99.90;;;;;;4882925;29;20493;-84
2022/01/30 02:27:19;;;;;;;75.60;32.05;;;3.00;99.90;;;;;;4938471;29;20111;-85
2022/01/30 02:29:45;;;;;;;83.43;31.20;;;3.00;99.90;;;;;;4938526;29;20043;-84
2022/01/30 02:32:11;;;;;;;83.25;31.02;;;3.30;99.90;;;;;;4939065;29;20035;-84
2022/01/30 02:34:37;;;;;;;80.57;31.58;;;2.80;99.90;;;;;;4935187;29;20032;-84
2022/01/30 02:37:03;;;;;;;81.55;30.80;;;2.80;99.90;;;;;;4938187;29;20040;-84
2022/01/30 02:39:29;;;;;;;75.55;31.40;;;3.00;99.90;;;;;;4938534;29;20111;-85
2022/01/30 02:41:55;;;;;;;79.15;30.10;;;3.10;99.90;;;;;;4922035;29;20070;-85
2022/01/30 02:46:49;;;;;;;88.28;32.75;;;3.20;99.90;;;;;;4936613;29;20036;-84
2022/01/30 02:52:05;;;;;;;91.43;32.95;;;3.00;99.90;;;;;;4939187;29;20091;-84
2022/01/30 02:54:31;;;;;;;89.72;32.67;;;2.90;99.90;;;;;;4937432;29;20499;-84
2022/01/30 02:56:57;;;;;;;89.50;33.15;;;2.90;99.90;;;;;;4937060;28;20095;-84
2022/01/30 02:59:23;;;;;;;88.70;34.30;;;2.70;99.90;;;;;;4938005;29;20024;-84
2022/01/30 03:01:50;;;;;;;93.38;33.75;;;2.70;99.90;;;;;;4936508;29;20106;-84
2022/01/30 03:04:16;;;;;;;87.43;33.88;;;2.80;99.90;;;;;;4935639;29;20031;-85
2022/01/30 03:06:43;;;;;;;87.95;34.25;;;2.80;99.90;;;;;;4921368;29;20031;-85
2022/01/30 03:09:09;;;;;;;94.68;33.58;;;2.70;99.90;;;;;;4937850;29;20507;-85
2022/01/30 03:11:35;;;;;;;89.55;34.28;;;2.50;99.90;;;;;;4937842;29;20492;-84
2022/01/30 03:14:02;;;;;;;100.80;34.72;;;2.80;99.90;;;;;;4938365;29;20023;-84
2022/01/30 03:16:28;;;;;;;96.13;34.00;;;2.60;99.90;;;;;;4933573;29;20036;-84
2022/01/30 03:18:54;;;;;;;93.20;35.20;;;2.80;99.90;;;;;;4938396;29;20043;-84
2022/01/30 03:21:20;;;;;;;104.07;35.80;;;3.20;99.90;;;;;;4937879;29;20039;-85
2022/01/30 03:23:46;;;;;;;89.18;34.13;;;2.90;99.90;;;;;;4937724;29;20032;-84
2022/01/30 03:26:14;;;;;;;125.40;32.63;;;3.20;99.90;;;;;;4937012;29;20031;-84
2022/01/30 03:28:41;;;;;;;101.82;34.65;;;2.80;99.90;;;;;;4935271;29;20031;-84
2022/01/30 03:31:09;;;;;;;91.68;33.80;;;2.50;99.90;;;;;;4936229;29;20031;-84
2022/01/30 03:33:35;;;;;;;123.82;34.17;;;3.30;99.90;;;;;;4938215;29;20032;-84
2022/01/30 03:36:01;;;;;;;96.72;33.75;;;2.80;99.90;;;;;;4937909;29;20035;-84
2022/01/30 03:38:27;;;;;;;97.57;32.47;;;2.70;99.90;;;;;;4937686;29;20532;-84
2022/01/30 03:40:53;;;;;;;91.57;32.95;;;2.60;99.90;;;;;;4936265;29;20483;-84
2022/01/30 03:43:19;;;;;;;96.10;32.42;;;2.60;99.90;;;;;;4934616;29;20059;-84
2022/01/30 03:45:46;;;;;;;101.18;32.25;;;2.70;99.90;;;;;;4938243;29;20551;-84
2022/01/30 03:48:15;;;;;;;97.13;34.20;;;2.50;99.90;;;;;;4937528;29;20036;-84
2022/01/30 03:50:44;;;;;;;90.05;32.22;;;2.80;99.90;;;;;;4937987;29;20075;-84
2022/01/30 03:53:10;;;;;;;100.00;31.88;;;3.00;99.90;;;;;;4937494;29;20035;-84
2022/01/30 03:55:36;;;;;;;88.10;31.92;;;2.80;99.90;;;;;;4933825;29;20035;-84
2022/01/30 03:58:02;;;;;;;89.82;32.33;;;2.70;99.90;;;;;;4937033;29;20036;-84
2022/01/30 04:00:29;;;;;;;84.85;32.63;;;2.60;99.90;;;;;;4937833;29;20110;-85
2022/01/30 04:02:54;;;;;;;80.68;31.20;;;3.30;99.90;;;;;;4937667;29;20038;-84
2022/01/30 04:05:20;;;;;;;85.10;31.45;;;3.10;99.90;;;;;;4937198;29;20121;-84
2022/01/30 04:07:46;;;;;;;89.00;31.73;;;3.30;99.90;;;;;;4936103;29;20115;-84
2022/01/30 04:10:13;;;;;;;81.30;30.58;;;3.00;99.90;;;;;;4938251;29;20044;-84
2022/01/30 04:12:39;;;;;;;82.45;33.33;;;3.00;99.90;;;;;;4939498;29;20396;-84
2022/01/30 04:15:06;;;;;;;97.15;33.10;;;2.90;99.90;;;;;;4941133;29;20090;-84
2022/01/30 04:17:32;;;;;;;100.35;33.22;;;2.80;99.90;;;;;;4941063;29;20036;-84
2022/01/30 04:19:57;;;;;;;97.03;32.97;;;2.80;99.90;;;;;;4940113;29;20038;-84
2022/01/30 04:22:23;;;;;;;98.03;34.38;;;2.70;99.90;;;;;;4937075;29;20078;-84
2022/01/30 04:24:49;;;;;;;91.97;34.88;;;2.50;99.90;;;;;;4940950;29;20038;-84
2022/01/30 04:27:15;;;;;;;95.57;35.00;;;2.90;99.90;;;;;;4940988;29;20040;-84
2022/01/30 04:29:40;;;;;;;107.90;33.55;;;3.10;99.90;;;;;;4941211;29;20030;-85
2022/01/30 04:32:08;;;;;;;89.57;32.92;;;3.20;99.90;;;;;;4941001;29;20039;-84
2022/01/30 04:34:34;;;;;;;80.55;31.00;;;3.40;99.90;;;;;;4937230;29;20079;-85
2022/01/30 04:37:04;;;;;;;94.82;33.47;;;3.10;99.90;;;;;;4940289;29;20040;-84
2022/01/30 05:01:07;;;;;;;91.18;32.15;;;3.40;99.90;;;;;;4940856;29;20035;-84
2022/01/30 05:08:15;;;;;;;90.45;32.85;;;2.90;99.90;;;;;;4939698;29;20145;-83
2022/01/30 05:10:40;;;;;;;87.85;31.40;;;2.80;99.90;;;;;;4937368;29;20106;-84
2022/01/30 05:13:10;;;;;;;82.22;31.90;;;3.10;99.90;;;;;;4939252;29;20032;-84
2022/01/30 05:15:36;;;;;;;87.68;33.47;;;3.00;99.90;;;;;;4940554;29;20023;-84
2022/01/30 05:18:02;;;;;;;108.72;33.97;;;3.20;99.90;;;;;;4939895;29;20047;-84
2022/01/30 05:20:29;;;;;;;85.30;32.20;;;3.30;99.90;;;;;;4939055;29;20032;-84
2022/01/30 05:22:56;;;;;;;84.32;32.63;;;3.40;99.90;;;;;;4938851;29;20038;-84
2022/01/30 05:25:22;;;;;;;81.63;31.35;;;3.40;99.90;;;;;;4936420;29;20070;-84
2022/01/30 05:27:48;;;;;;;80.80;31.60;;;3.30;99.90;;;;;;4940695;29;20047;-84
2022/01/30 05:30:15;;;;;;;80.75;30.73;;;3.40;99.90;;;;;;4923759;29;20032;-84
2022/01/30 05:32:41;;;;;;;81.70;31.52;;;3.00;99.90;;;;;;4940560;29;20059;-84
2022/01/30 05:35:07;;;;;;;87.63;32.28;;;3.00;99.90;;;;;;4949895;29;20063;-84
2022/01/30 05:37:33;;;;;;;88.47;31.45;;;3.10;99.90;;;;;;4935431;29;20032;-85
2022/01/30 05:39:59;;;;;;;87.40;32.03;;;3.10;99.90;;;;;;4951662;29;20023;-84
2022/01/30 05:42:27;;;;;;;83.28;31.25;;;3.20;99.90;;;;;;4939674;29;20067;-84
2022/01/30 05:48:04;;;;;;;100.25;33.45;;;3.20;99.90;;;;;;4876405;29;20028;-84
2022/01/30 05:50:30;;;;;;;131.25;35.55;;;3.40;99.90;;;;;;4876181;29;20453;-85
2022/01/30 05:52:56;;;;;;;86.68;32.88;;;3.40;99.90;;;;;;4876223;29;20049;-84
2022/01/30 05:55:22;;;;;;;82.30;31.52;;;3.40;99.90;;;;;;4876767;29;20153;-84
2022/01/30 05:57:48;;;;;;;85.03;32.35;;;3.70;99.90;;;;;;4872962;29;20047;-84
2022/01/30 06:00:15;;;;;;;83.28;32.70;;;3.50;99.90;;;;;;4871905;29;20406;-85
2022/01/30 06:02:44;;;;;;;87.63;31.98;;;3.60;99.90;;;;;;4875966;29;20519;-84
2022/01/30 06:05:13;;;;;;;106.72;36.95;;;3.60;99.90;;;;;;4872015;29;20435;-84
2022/01/30 06:07:47;;;;;;;168.75;40.08;;;3.70;99.90;;;;;;4876368;29;20029;-84
2022/01/30 06:10:13;;;;;;;114.07;39.45;;;3.40;99.90;;;;;;4876594;29;20044;-84
2022/01/30 06:12:39;;;;;;;90.38;37.53;;;3.30;99.90;;;;;;4876225;29;20044;-84
2022/01/30 06:15:05;;;;;;;100.30;38.33;;;3.20;99.90;;;;;;4876276;29;20036;-84
2022/01/30 06:17:30;;;;;;;98.18;39.13;;;3.50;99.90;;;;;;4872154;29;20040;-83
2022/01/30 06:19:56;;;;;;;97.70;37.65;;;3.50;99.90;;;;;;4937772;29;20038;-85
2022/01/30 06:22:22;;;;;;;88.25;35.45;;;3.60;99.90;;;;;;4935467;29;20073;-84
2022/01/30 06:24:47;;;;;;;76.65;31.50;;;3.50;99.90;;;;;;4939870;29;20381;-83
2022/01/30 06:27:13;;;;;;;70.53;29.88;;;3.60;99.90;;;;;;4938483;29;20452;-84
2022/01/30 06:29:38;;;;;;;92.57;35.65;;;3.90;99.90;;;;;;4938470;29;20543;-84
2022/01/30 06:32:05;;;;;;;92.40;38.42;;;3.40;99.90;;;;;;4938642;29;20073;-83
2022/01/30 06:34:30;;;;;;;111.18;39.22;;;3.40;99.90;;;;;;4933995;29;20019;-84
2022/01/30 06:36:56;;;;;;;109.05;37.83;;;3.50;99.90;;;;;;4939484;29;20396;-84
2022/01/30 06:39:22;;;;;;;96.82;38.33;;;3.40;99.90;;;;;;4938323;29;20039;-84
2022/01/30 06:41:48;;;;;;;104.32;39.78;;;3.50;99.90;;;;;;4922683;29;20043;-85
2022/01/30 06:44:13;;;;;;;99.78;37.80;;;3.50;99.90;;;;;;4936199;29;20066;-84
2022/01/30 06:46:39;;;;;;;110.57;38.38;;;3.50;99.90;;;;;;4949458;29;20023;-84
2022/01/30 06:49:04;;;;;;;125.90;40.83;;;3.90;99.90;;;;;;4936842;29;20095;-84
2022/01/30 06:51:30;;;;;;;131.55;40.95;;;3.40;99.90;;;;;;4935844;29;20114;-85
2022/01/30 06:53:56;;;;;;;122.53;39.95;;;3.80;99.90;;;;;;4938477;29;20035;-84
2022/01/30 06:56:21;;;;;;;226.90;43.42;;;3.60;99.90;;;;;;4938380;29;20038;-84
2022/01/30 06:58:47;;;;;;;96.57;38.05;;;3.40;99.90;;;;;;4936616;29;20061;-84
2022/01/30 07:01:13;;;;;;;98.53;37.45;;;3.30;99.90;;;;;;4936135;29;20516;-84
2022/01/30 07:03:38;;;;;;;102.97;39.45;;;3.30;99.90;;;;;;4950880;29;20392;-84
2022/01/30 07:06:04;;;;;;;101.15;38.25;;;3.50;99.90;;;;;;4940790;29;20035;-84
2022/01/30 07:08:30;;;;;;;122.88;38.03;;;3.90;99.90;;;;;;4938218;29;20032;-84
2022/01/30 07:10:55;;;;;;;94.57;36.65;;;3.60;99.90;;;;;;4937819;29;20050;-84
2022/01/30 07:13:21;;;;;;;131.73;40.45;;;3.60;99.90;;;;;;4950138;29;20038;-85
2022/01/30 07:15:47;;;;;;;130.82;40.35;;;3.60;99.90;;;;;;4952357;29;20106;-83
2022/01/30 07:18:12;;;;;;;108.93;38.50;;;3.50;99.90;;;;;;4939901;29;20031;-84
2022/01/30 07:20:38;;;;;;;91.40;36.35;;;3.50;99.90;;;;;;4937164;29;20443;-84
2022/01/30 07:23:04;;;;;;;95.90;36.97;;;3.60;99.90;;;;;;4937395;29;20035;-86
2022/01/30 07:25:29;;;;;;;95.72;37.25;;;4.10;99.90;;;;;;4934503;29;20102;-85
2022/01/30 07:27:55;;;;;;;173.23;40.08;;;3.70;99.90;;;;;;4938053;29;20028;-84
2022/01/30 07:30:21;;;;;;;104.50;38.65;;;3.70;99.90;;;;;;4937738;29;20035;-84
2022/01/30 07:32:46;;;;;;;109.95;38.78;;;3.70;99.90;;;;;;4921579;29;20034;-83
2022/01/30 07:35:12;;;;;;;108.80;36.78;;;3.70;99.90;;;;;;4937554;29;20082;-84
2022/01/30 07:37:38;;;;;;;122.40;40.55;;;3.80;99.90;;;;;;4934759;29;20511;-85
2022/01/30 07:40:05;;;;;;;104.40;39.03;;;3.90;99.90;;;;;;4936747;29;20024;-84
2022/01/30 07:42:30;;;;;;;112.32;38.85;;;3.60;99.90;;;;;;4937782;29;20040;-84
2022/01/30 07:44:56;;;;;;;94.85;37.88;;;3.60;99.90;;;;;;4941534;29;20086;-84
2022/01/30 07:47:22;;;;;;;127.95;39.70;;;3.90;99.90;;;;;;4941258;29;20027;-84
2022/01/30 07:49:51;;;;;;;99.20;37.97;;;3.70;99.90;;;;;;4939479;29;20516;-84
2022/01/30 07:52:21;;;;;;;140.98;39.53;;;3.80;99.90;;;;;;4938387;29;20123;-85
2022/01/30 07:54:47;;;;;;;107.30;37.83;;;3.90;99.90;;;;;;4942301;29;20103;-85
2022/01/30 07:57:12;;;;;;;107.22;41.17;;;4.10;99.90;;;;;;4940801;29;20126;-84
2022/01/30 07:59:38;;;;;;;104.22;39.28;;;3.90;99.90;;;;;;4940965;29;20025;-85
2022/01/30 08:02:04;;;;;;;109.35;40.25;;;3.80;99.90;;;;;;4940752;29;20031;-85
2022/01/30 08:04:30;;;;;;;109.38;41.22;;;4.00;99.90;;;;;;4937633;29;20030;-85
2022/01/30 08:06:55;;;;;;;100.68;39.83;;;4.00;99.90;;;;;;4941783;29;20118;-84
2022/01/30 08:09:21;;;;;;;113.20;41.53;;;4.10;99.90;;;;;;4940897;29;20449;-84
2022/01/30 08:11:47;;;;;;;109.05;41.63;;;4.10;99.90;;;;;;4940875;29;20110;-84
2022/01/30 08:14:12;;;;;;;122.32;42.67;;;4.40;99.90;;;;;;4940840;29;20036;-84
2022/01/30 08:16:39;;;;;;;104.35;39.63;;;4.40;99.90;;;;;;4937262;29;20110;-85
2022/01/30 08:19:05;;;;;;;106.72;39.15;;;4.60;99.90;;;;;;4939875;29;20500;-84
2022/01/30 08:21:31;;;;;;;100.88;37.80;;;4.60;99.90;;;;;;4941044;29;20106;-84
2022/01/30 08:23:57;;;;;;;111.72;35.50;;;4.20;99.90;;;;;;4940972;29;20516;-84
2022/01/30 08:26:23;;;;;;;87.65;34.35;;;4.00;99.90;;;;;;4940565;29;20055;-84
2022/01/30 08:28:48;;;;;;;92.50;36.22;;;4.40;99.90;;;;;;4938843;29;20032;-84
2022/01/30 08:31:14;;;;;;;99.53;36.17;;;4.10;99.90;;;;;;4938028;29;20441;-84
2022/01/30 08:33:40;;;;;;;93.60;35.55;;;4.60;99.90;;;;;;4939033;29;20028;-84
2022/01/30 08:36:06;;;;;;;141.32;44.10;;;4.40;99.90;;;;;;4940795;29;20043;-84
2022/01/30 08:38:31;;;;;;;113.65;40.33;;;4.30;99.90;;;;;;4940324;29;20101;-85
2022/01/30 08:40:57;;;;;;;120.55;39.08;;;4.40;99.90;;;;;;4940093;29;20031;-87
2022/01/30 08:43:23;;;;;;;112.88;42.03;;;4.60;99.90;;;;;;4936852;29;20060;-87
2022/01/30 08:45:50;;;;;;;135.13;42.17;;;4.40;99.90;;;;;;4940485;29;20023;-86
2022/01/30 08:48:17;;;;;;;111.70;39.50;;;4.70;99.90;;;;;;4940320;29;20031;-86
2022/01/30 08:50:43;;;;;;;110.50;38.97;;;4.40;99.90;;;;;;4939893;29;20054;-86
2022/01/30 08:53:09;;;;;;;120.50;38.95;;;4.50;99.90;;;;;;4940564;29;20087;-85
2022/01/30 08:55:35;;;;;;;121.68;42.05;;;4.50;99.90;;;;;;4935650;29;20031;-85
2022/01/30 08:58:07;;;;;;;142.55;51.45;;;4.70;99.90;;;;;;4939829;29;20452;-85
2022/01/30 09:00:35;;;;;;;129.02;53.03;;;4.90;99.90;;;;;;4939682;29;20034;-86
2022/01/30 09:03:03;;;;;;;115.78;44.70;;;4.60;99.90;;;;;;4939786;29;20035;-85
2022/01/30 09:05:30;;;;;;;97.22;37.70;;;4.80;99.90;;;;;;4940305;29;20412;-85
2022/01/30 09:07:56;;;;;;;93.07;35.25;;;4.80;99.90;;;;;;4938936;29;20035;-84
2022/01/30 09:10:22;;;;;;;88.80;35.05;;;5.30;99.90;;;;;;4936987;29;20020;-89
2022/01/30 09:12:47;;;;;;;108.00;38.45;;;5.20;99.90;;;;;;4925312;29;20579;-80
2022/01/30 09:15:15;;;;;;;91.63;35.65;;;5.10;99.90;;;;;;4938856;29;20024;-83
2022/01/30 09:17:42;;;;;;;85.32;32.67;;;5.60;99.90;;;;;;4939908;29;20126;-87
2022/01/30 09:20:09;;;;;;;87.00;33.38;;;5.40;99.90;;;;;;4941507;29;20027;-84
2022/01/30 09:22:35;;;;;;;91.82;34.50;;;4.80;99.90;;;;;;4935996;29;20476;-87
2022/01/30 09:25:01;;;;;;;84.63;33.35;;;4.80;99.90;;;;;;4939661;29;20035;-86
2022/01/30 09:27:26;;;;;;;87.85;34.65;;;5.00;99.90;;;;;;4940016;29;20101;-86
2022/01/30 09:29:52;;;;;;;95.72;34.90;;;5.40;99.90;;;;;;4939176;29;20028;-86
2022/01/30 09:32:18;;;;;;;86.38;34.20;;;5.30;99.90;;;;;;4939747;29;20027;-85
2022/01/30 09:34:44;;;;;;;85.63;32.70;;;5.30;99.90;;;;;;4936830;29;20028;-85
2022/01/30 09:37:11;;;;;;;92.72;34.92;;;5.70;99.90;;;;;;4937619;29;20043;-86
2022/01/30 09:39:37;;;;;;;94.32;36.80;;;5.40;99.90;;;;;;4939715;29;20448;-86
2022/01/30 09:42:04;;;;;;;83.22;35.47;;;5.40;99.90;;;;;;4939032;29;20123;-86
2022/01/30 09:44:34;;;;;;;89.72;34.33;;;5.40;99.90;;;;;;4939063;29;20020;-86
2022/01/30 09:47:00;;;;;;;90.05;35.05;;;5.80;99.90;;;;;;4938787;29;20031;-86
2022/01/30 09:49:29;;;;;;;112.35;34.92;;;6.60;99.90;;;;;;4935294;29;20083;-86
2022/01/30 09:51:55;;;;;;;107.97;36.33;;;6.20;99.90;;;;;;4939908;29;20035;-86
2022/01/30 09:54:22;;;;;;;86.53;35.58;;;6.10;99.90;;;;;;4939041;29;20400;-86
2022/01/30 09:56:48;;;;;;;90.07;35.85;;;5.90;99.90;;;;;;4938853;29;20468;-86
2022/01/30 09:59:14;;;;;;;86.28;32.58;;;6.00;99.90;;;;;;4938514;29;20027;-86
2022/01/30 10:01:40;;;;;;;91.00;32.70;;;5.90;99.90;;;;;;4936279;29;20028;-86
2022/01/30 10:04:06;;;;;;;97.07;31.48;;;5.70;99.90;;;;;;4938172;29;20091;-86
2022/01/30 10:06:55;;;;;;;100.53;32.80;;;6.00;99.90;;;;;;4939061;29;20111;-85
2022/01/30 10:09:45;;;;;;;105.85;31.25;;;6.00;99.90;;;;;;4938406;29;20105;-85
2022/01/30 10:12:22;;;;;;;89.57;32.72;;;5.70;99.90;;;;;;4938772;29;20033;-94
2022/01/30 10:15:06;;;;;;;88.57;34.90;;;5.80;99.90;;;;;;4939473;29;20575;-89
2022/01/30 10:17:47;;;;;;;82.53;30.90;;;5.60;99.90;;;;;;4938570;29;20036;-84
2022/01/30 10:20:15;;;;;;;70.88;31.02;;;5.90;99.90;;;;;;4938700;29;20043;-86
2022/01/30 10:22:48;;;;;;;70.50;28.88;;;5.80;99.90;;;;;;4920050;29;20445;-84
2022/01/30 10:25:27;;;;;;;71.75;30.17;;;5.90;99.90;;;;;;4936873;29;20034;-85
2022/01/30 10:28:09;;;;;;;66.50;28.83;;;6.00;99.90;;;;;;4938796;29;20102;-86
2022/01/30 10:30:45;;;;;;;70.72;28.92;;;6.10;99.90;;;;;;4938144;29;20038;-83
2022/01/30 10:33:13;;;;;;;69.00;29.75;;;5.90;99.90;;;;;;4938306;29;20035;-88
2022/01/30 10:35:56;;;;;;;74.55;31.48;;;6.20;99.90;;;;;;4939641;29;20066;-89
2022/01/30 10:38:34;;;;;;;72.43;30.08;;;5.80;99.90;;;;;;4938541;29;20035;-88
2022/01/30 10:41:11;;;;;;;68.72;30.00;;;5.80;99.90;;;;;;4938154;29;20027;-88
2022/01/30 10:44:01;;;;;;;70.85;30.65;;;6.50;99.90;;;;;;4920546;29;20046;-88
2022/01/30 10:46:30;;;;;;;71.05;30.33;;;6.40;99.90;;;;;;4908679;29;20035;-88
2022/01/30 10:49:17;;;;;;;62.50;27.60;;;6.60;99.90;;;;;;4922025;29;20058;-88
2022/01/30 10:51:53;;;;;;;75.90;31.98;;;6.30;99.90;;;;;;4936971;29;20126;-88
2022/01/30 10:54:19;;;;;;;67.10;29.88;;;6.40;99.90;;;;;;4935003;29;20507;-87
2022/01/30 10:56:45;;;;;;;67.60;28.52;;;6.40;99.90;;;;;;4943375;29;20047;-90
2022/01/30 10:59:16;;;;;;;65.13;29.65;;;6.40;99.90;;;;;;4924263;29;20031;-89
2022/01/30 11:01:47;;;;;;;63.33;29.23;;;6.30;99.90;;;;;;4932861;29;20038;-89
2022/01/30 11:04:27;;;;;;;64.18;28.92;;;6.40;99.90;;;;;;4920069;29;20493;-89
2022/01/30 11:06:54;;;;;;;59.58;27.25;;;6.40;99.90;;;;;;4923359;29;20024;-90
2022/01/30 11:09:26;;;;;;;56.67;25.45;;;6.40;99.90;;;;;;4938669;29;20091;-88
2022/01/30 11:11:59;;;;;;;56.58;26.00;;;7.00;99.90;;;;;;4937537;29;20508;-83
2022/01/30 11:14:37;;;;;;;50.20;23.88;;;6.60;99.90;;;;;;4938169;29;20031;-83
2022/01/30 11:17:03;;;;;;;54.80;25.02;;;6.60;99.90;;;;;;4937960;28;20057;-84
2022/01/30 11:19:44;;;;;;;54.05;25.77;;;6.70;99.90;;;;;;4904618;29;20578;-84
2022/01/30 11:22:14;;;;;;;54.90;25.73;;;6.90;99.90;;;;;;4950812;29;20106;-84
2022/01/30 11:24:47;;;;;;;59.78;27.52;;;6.90;99.90;;;;;;4942062;29;20164;-83
2022/01/30 11:27:20;;;;;;;57.38;26.73;;;6.70;99.90;;;;;;4945409;29;20028;-83
2022/01/30 11:29:46;;;;;;;63.78;28.20;;;6.80;99.90;;;;;;4942956;29;20027;-85
2022/01/30 11:32:13;;;;;;;52.70;26.55;;;7.30;99.90;;;;;;4941588;29;20031;-84
2022/01/30 11:34:40;;;;;;;56.88;28.48;;;6.80;99.90;;;;;;4938383;29;20042;-83
2022/01/30 11:37:08;;;;;;;58.08;26.95;;;7.00;99.90;;;;;;4941093;29;20114;-84
2022/01/30 11:39:41;;;;;;;59.50;28.80;;;6.80;99.90;;;;;;4940627;29;20024;-84
2022/01/30 11:42:25;;;;;;;61.63;29.58;;;6.90;99.90;;;;;;4941831;29;20416;-84
2022/01/30 11:45:19;;;;;;;59.25;28.20;;;6.70;99.90;;;;;;4941660;29;20489;-86
2022/01/30 11:47:52;;;;;;;59.28;28.30;;;6.60;99.90;;;;;;4941809;29;20070;-84
2022/01/30 11:50:25;;;;;;;61.55;29.17;;;6.80;99.90;;;;;;4942226;29;20030;-84
2022/01/30 11:52:56;;;;;;;58.47;28.23;;;7.20;99.90;;;;;;4939717;29;20043;-88
2022/01/30 11:55:57;;;;;;;63.60;29.83;;;7.20;99.90;;;;;;4920810;29;20031;-83
2022/01/30 11:58:39;;;;;;;62.00;29.33;;;6.90;99.90;;;;;;4951880;29;20040;-83
2022/01/30 12:01:25;;;;;;;59.50;29.15;;;6.90;99.90;;;;;;4949890;29;20030;-83
2022/01/30 12:04:01;;;;;;;62.10;30.02;;;7.00;99.90;;;;;;4942539;29;20500;-84
2022/01/30 12:06:27;;;;;;;58.95;28.67;;;7.00;99.90;;;;;;4942141;29;20485;-84
2022/01/30 12:08:53;;;;;;;65.60;29.95;;;7.00;99.90;;;;;;4941222;29;20094;-84
2022/01/30 12:11:34;;;;;;;63.53;29.45;;;6.90;99.90;;;;;;4940912;29;20032;-84
2022/01/30 12:14:07;;;;;;;59.33;28.65;;;7.00;99.90;;;;;;4941070;29;20038;-82
2022/01/30 12:16:43;;;;;;;56.08;27.02;;;7.10;99.90;;;;;;4920692;29;20028;-93
2022/01/30 12:19:11;;;;;;;57.28;27.58;;;7.00;99.90;;;;;;4939240;29;20032;-86
2022/01/30 12:21:37;;;;;;;57.97;28.42;;;7.00;99.90;;;;;;4941699;29;20038;-88
2022/01/30 12:24:27;;;;;;;53.08;25.98;;;6.90;99.90;;;;;;4940915;29;20100;-86
2022/01/30 12:27:02;;;;;;;54.50;27.33;;;6.90;99.90;;;;;;4925358;29;20047;-87
2022/01/30 12:30:00;;;;;;;56.60;28.05;;;7.00;99.90;;;;;;4940619;29;20394;-85
2022/01/30 12:32:30;;;;;;;53.92;26.45;;;7.10;99.90;;;;;;4903234;29;20044;-84
2022/01/30 12:34:55;;;;;;;55.80;27.02;;;7.50;99.90;;;;;;4918281;29;20043;-85
2022/01/30 12:37:32;;;;;;;56.72;26.80;;;7.30;99.90;;;;;;4916080;29;20456;-85
2022/01/30 12:40:01;;;;;;;53.90;26.73;;;7.60;99.90;;;;;;4927044;29;20031;-93
2022/01/30 12:42:32;;;;;;;53.75;26.05;;;7.40;99.90;;;;;;4920200;29;20048;-85
2022/01/30 12:45:03;;;;;;;57.10;27.10;;;7.40;99.90;;;;;;4919632;29;20039;-85
2022/01/30 12:47:29;;;;;;;56.20;27.77;;;7.20;99.90;;;;;;4919636;29;20055;-85
2022/01/30 12:49:59;;;;;;;52.58;26.35;;;7.30;99.90;;;;;;4918664;29;20504;-84
2022/01/30 12:54:59;;;;;;;50.33;26.27;;;7.40;99.90;;;;;;4920026;29;20131;-84
2022/01/30 12:57:26;;;;;;;49.50;25.60;;;7.50;99.90;;;;;;4919409;29;20131;-85
2022/01/30 12:59:58;;;;;;;52.55;26.88;;;7.70;99.90;;;;;;4918892;29;20121;-86
2022/01/30 13:02:25;;;;;;;59.20;28.65;;;7.90;99.90;;;;;;4918124;29;20036;-86
2022/01/30 13:05:04;;;;;;;54.95;27.70;;;7.30;99.90;;;;;;4914095;29;20039;-85
2022/01/30 13:07:30;;;;;;;50.95;25.98;;;7.20;99.90;;;;;;4906238;29;20420;-85
2022/01/30 13:10:09;;;;;;;62.53;29.80;;;7.40;99.90;;;;;;4940863;29;20038;-85
2022/01/30 13:12:35;;;;;;;58.08;27.73;;;7.50;99.90;;;;;;4939466;29;20102;-85
2022/01/30 13:15:12;;;;;;;62.10;29.58;;;7.40;99.90;;;;;;4923772;29;20457;-85
2022/01/30 13:17:39;;;;;;;55.70;27.40;;;7.40;99.90;;;;;;4939442;29;20035;-85
2022/01/30 13:20:07;;;;;;;63.80;29.90;;;7.50;99.90;;;;;;4939650;29;20037;-85
2022/01/30 13:22:37;;;;;;;59.53;29.40;;;7.30;99.90;;;;;;4935952;29;20031;-88
2022/01/30 13:25:09;;;;;;;57.53;28.52;;;7.30;99.90;;;;;;4939475;29;20023;-87
2022/01/30 13:27:42;;;;;;;58.15;28.73;;;7.60;99.90;;;;;;4947116;29;20558;-88
2022/01/30 13:30:09;;;;;;;54.65;27.10;;;7.70;99.90;;;;;;4929894;29;20459;-88
2022/01/30 13:32:39;;;;;;;52.90;26.08;;;7.70;99.90;;;;;;4929479;29;20046;-88
2022/01/30 13:35:16;;;;;;;58.75;27.08;;;7.60;99.90;;;;;;4950387;29;20035;-88
2022/01/30 13:37:43;;;;;;;52.00;27.58;;;7.70;99.90;;;;;;4920787;29;20072;-88
2022/01/30 13:40:23;;;;;;;57.20;26.23;;;7.80;99.90;;;;;;4937876;29;20499;-87
2022/01/30 13:48:20;;;;;;;49.10;24.70;;;8.10;99.90;;;;;;4939528;29;20461;-87
2022/01/30 13:51:06;;;;;;;45.75;24.50;;;8.20;99.90;;;;;;4938568;29;20042;-88
2022/01/30 13:53:35;;;;;;;47.00;24.40;;;8.10;99.90;;;;;;4939665;29;20041;-88
2022/01/30 13:56:06;;;;;;;44.03;22.02;;;8.30;99.90;;;;;;4938806;29;20503;-87
2022/01/30 13:58:41;;;;;;;39.38;21.42;;;8.50;99.90;;;;;;4918825;29;20035;-87